createdAt,value
2018-06-27T00:00:59.974Z,92.00
2018-06-27T00:03:33.644Z,92.00
2018-06-27T00:06:07.604Z,91.80
2018-06-27T00:08:41.259Z,91.90
2018-06-27T00:11:14.986Z,91.80
2018-06-27T00:13:48.089Z,91.90
2018-06-27T00:16:21.223Z,92.00
2018-06-27T00:18:54.383Z,91.60
2018-06-27T00:21:27.523Z,91.80
2018-06-27T00:24:00.685Z,91.90
2018-06-27T00:26:33.769Z,91.90
2018-06-27T00:29:06.943Z,91.90
2018-06-27T00:31:40.088Z,91.80
2018-06-27T00:34:13.192Z,91.70
2018-06-27T00:36:46.371Z,91.70
2018-06-27T00:39:19.480Z,91.50
2018-06-27T00:41:52.599Z,91.50
2018-06-27T00:44:25.615Z,91.40
2018-06-27T00:46:58.780Z,91.30
2018-06-27T00:49:31.877Z,91.00
2018-06-27T00:52:04.965Z,91.10
2018-06-27T00:54:38.052Z,90.90
2018-06-27T00:57:11.259Z,90.90
2018-06-27T00:59:44.321Z,90.90
2018-06-27T01:02:17.393Z,90.80
2018-06-27T01:04:50.620Z,90.80
2018-06-27T01:07:23.607Z,90.60
2018-06-27T01:09:56.777Z,90.60
2018-06-27T01:12:29.895Z,90.50
2018-06-27T01:15:03.831Z,90.40
2018-06-27T01:17:36.802Z,90.30
2018-06-27T01:20:10.187Z,90.30
2018-06-27T01:22:43.266Z,90.30
2018-06-27T01:25:16.303Z,90.20
2018-06-27T01:27:49.773Z,90.30
2018-06-27T01:30:22.833Z,90.30
2018-06-27T01:32:55.830Z,90.30
2018-06-27T01:35:28.925Z,90.40
2018-06-27T01:38:02.094Z,90.30
2018-06-27T01:40:35.150Z,90.20
2018-06-27T01:43:08.236Z,90.20
2018-06-27T01:45:41.274Z,90.10
2018-06-27T01:48:14.402Z,89.90
2018-06-27T01:50:47.729Z,89.70
2018-06-27T01:53:21.105Z,89.60
2018-06-27T01:55:54.553Z,89.50
2018-06-27T01:58:28.432Z,89.60
2018-06-27T02:01:02.050Z,89.60
2018-06-27T02:03:38.217Z,89.40
2018-06-27T02:06:12.014Z,89.20
2018-06-27T02:08:45.829Z,88.90
2018-06-27T02:11:19.540Z,88.70
2018-06-27T02:13:54.260Z,88.80
2018-06-27T02:16:28.001Z,89.00
2018-06-27T02:19:01.920Z,88.80
2018-06-27T02:21:35.308Z,88.80
2018-06-27T02:24:08.486Z,88.60
2018-06-27T02:26:41.724Z,88.70
2018-06-27T02:29:14.907Z,88.70
2018-06-27T02:31:48.098Z,88.50
2018-06-27T02:34:21.419Z,88.40
2018-06-27T02:36:54.527Z,88.60
2018-06-27T02:39:27.756Z,88.40
2018-06-27T02:42:00.874Z,88.50
2018-06-27T02:44:34.137Z,88.50
2018-06-27T02:47:07.297Z,88.40
2018-06-27T02:49:40.712Z,88.40
2018-06-27T02:52:14.541Z,88.30
2018-06-27T02:54:48.279Z,87.60
2018-06-27T02:57:26.322Z,86.60
2018-06-27T03:00:01.035Z,86.40
2018-06-27T03:02:39.367Z,86.40
2018-06-27T03:05:13.316Z,86.60
2018-06-27T03:07:47.582Z,86.80
2018-06-27T03:10:21.309Z,87.10
2018-06-27T03:12:55.042Z,87.20
2018-06-27T03:15:28.852Z,87.30
2018-06-27T03:18:02.721Z,87.40
2018-06-27T03:20:36.358Z,87.30
2018-06-27T03:23:09.686Z,87.40
2018-06-27T03:25:42.731Z,87.60
2018-06-27T03:28:15.850Z,87.50
2018-06-27T03:30:48.913Z,87.40
2018-06-27T03:33:22.105Z,87.20
2018-06-27T03:35:55.154Z,86.80
2018-06-27T03:38:28.235Z,86.50
2018-06-27T03:41:01.316Z,85.10
2018-06-27T03:43:34.483Z,85.10
2018-06-27T03:46:08.700Z,85.20
2018-06-27T03:48:41.731Z,84.90
2018-06-27T03:51:14.828Z,84.50
2018-06-27T03:53:51.971Z,84.10
2018-06-27T03:56:25.131Z,84.00
2018-06-27T03:58:58.314Z,83.70
2018-06-27T04:01:31.344Z,83.10
2018-06-27T04:04:04.572Z,83.20
2018-06-27T04:06:37.799Z,83.30
2018-06-27T04:09:14.223Z,83.50
2018-06-27T04:11:47.695Z,83.40
2018-06-27T04:14:20.787Z,83.00
2018-06-27T04:16:54.115Z,83.10
2018-06-27T04:19:27.681Z,82.90
2018-06-27T04:22:00.788Z,82.80
2018-06-27T04:24:34.468Z,82.40
2018-06-27T04:27:07.775Z,82.00
2018-06-27T04:29:40.853Z,81.80
2018-06-27T04:32:14.093Z,82.00
2018-06-27T04:34:47.428Z,81.50
2018-06-27T04:37:20.615Z,81.80
2018-06-27T04:39:53.776Z,81.60
2018-06-27T04:42:26.943Z,81.30
2018-06-27T04:45:00.179Z,80.50
2018-06-27T04:47:33.338Z,80.00
2018-06-27T04:50:06.554Z,79.70
2018-06-27T04:52:39.857Z,79.60
2018-06-27T04:55:12.971Z,79.10
2018-06-27T04:57:46.199Z,78.60
2018-06-27T05:00:19.350Z,78.30
2018-06-27T05:02:52.424Z,78.60
2018-06-27T05:05:25.588Z,77.50
2018-06-27T05:07:58.846Z,77.70
2018-06-27T05:10:32.158Z,76.70
2018-06-27T05:13:05.324Z,76.30
2018-06-27T05:15:38.602Z,76.60
2018-06-27T05:18:11.769Z,75.60
2018-06-27T05:20:44.963Z,74.30
2018-06-27T05:23:18.167Z,74.40
2018-06-27T05:25:51.191Z,74.70
2018-06-27T05:28:24.279Z,74.50
2018-06-27T05:30:58.115Z,73.60
2018-06-27T05:33:31.231Z,72.70
2018-06-27T05:36:04.449Z,70.40
2018-06-27T05:38:37.572Z,71.90
2018-06-27T05:41:10.640Z,70.00
2018-06-27T05:43:43.810Z,69.30
2018-06-27T05:46:16.923Z,70.20
2018-06-27T05:48:50.056Z,68.50
2018-06-27T05:51:23.254Z,67.30
2018-06-27T05:53:56.327Z,67.90
2018-06-27T05:56:29.470Z,66.60
2018-06-27T05:59:02.591Z,67.10
2018-06-27T06:01:36.202Z,67.20
2018-06-27T06:04:10.108Z,66.00
2018-06-27T06:06:43.494Z,63.50
2018-06-27T06:09:16.608Z,62.20
2018-06-27T06:11:49.778Z,61.20
2018-06-27T06:14:22.839Z,61.30
2018-06-27T06:16:55.815Z,60.60
2018-06-27T06:19:28.941Z,60.40
2018-06-27T06:22:02.096Z,60.00
2018-06-27T06:24:39.293Z,58.90
2018-06-27T06:27:12.886Z,58.50
2018-06-27T06:29:47.048Z,59.70
2018-06-27T06:32:20.870Z,60.10
2018-06-27T06:34:54.694Z,59.30
2018-06-27T06:37:27.932Z,59.60
2018-06-27T06:40:01.161Z,59.80
2018-06-27T06:42:34.369Z,59.90
2018-06-27T06:45:07.603Z,60.00
2018-06-27T06:47:40.702Z,61.80
2018-06-27T06:50:14.896Z,62.50
2018-06-27T06:52:47.993Z,62.60
2018-06-27T06:55:21.299Z,64.60
2018-06-27T06:57:55.215Z,64.50
2018-06-27T07:00:28.327Z,64.90
2018-06-27T07:03:02.316Z,65.40
2018-06-27T07:05:35.375Z,66.00
2018-06-27T07:08:09.866Z,64.30
2018-06-27T07:10:43.028Z,65.10
2018-06-27T07:13:16.132Z,65.50
2018-06-27T07:15:49.179Z,66.40
2018-06-27T07:18:22.327Z,67.40
2018-06-27T07:20:55.385Z,67.90
2018-06-27T07:23:28.557Z,67.60
2018-06-27T07:26:01.734Z,67.80
2018-06-27T07:28:34.773Z,68.00
2018-06-27T07:31:07.901Z,67.70
2018-06-27T07:33:40.955Z,67.20
2018-06-27T07:36:14.075Z,66.90
2018-06-27T07:38:54.941Z,66.70
2018-06-27T07:41:34.750Z,67.30
2018-06-27T07:44:07.920Z,67.00
2018-06-27T07:46:58.233Z,66.30
2018-06-27T07:49:44.749Z,66.20
2018-06-27T07:52:20.570Z,66.20
2018-06-27T07:54:53.675Z,65.70
2018-06-27T07:57:26.784Z,65.60
2018-06-27T08:00:00.117Z,65.10
2018-06-27T08:02:38.648Z,64.80
2018-06-27T08:05:11.780Z,64.90
2018-06-27T08:07:46.747Z,64.30
2018-06-27T08:10:24.467Z,64.40
2018-06-27T08:12:57.569Z,64.00
2018-06-27T08:15:45.488Z,64.10
2018-06-27T08:18:18.697Z,63.90
2018-06-27T08:20:53.915Z,63.90
2018-06-27T08:23:27.051Z,64.00
2018-06-27T08:26:01.012Z,63.90
2018-06-27T08:28:35.650Z,64.00
2018-06-27T08:31:11.116Z,63.00
2018-06-27T08:33:44.154Z,63.30
2018-06-27T08:36:17.303Z,63.30
2018-06-27T08:38:50.666Z,63.10
2018-06-27T08:43:55.403Z,63.30
2018-06-27T08:46:29.460Z,63.80
2018-06-27T08:49:02.670Z,64.30
2018-06-27T08:51:35.627Z,65.00
2018-06-27T08:54:08.788Z,65.80
2018-06-27T08:56:41.858Z,67.30
2018-06-27T08:59:14.978Z,67.80
2018-06-27T09:01:48.687Z,68.90
2018-06-27T09:04:21.722Z,70.10
2018-06-27T09:06:56.092Z,71.00
2018-06-27T09:09:30.375Z,71.10
2018-06-27T09:12:14.160Z,70.20
2018-06-27T09:14:47.261Z,70.40
2018-06-27T09:17:20.380Z,70.50
2018-06-27T09:19:53.510Z,70.50
2018-06-27T09:22:27.527Z,70.20
2018-06-27T09:25:00.591Z,68.30
2018-06-27T09:27:33.624Z,67.90
2018-06-27T09:30:06.760Z,67.90
2018-06-27T09:32:40.195Z,68.10
2018-06-27T09:35:14.203Z,68.20
2018-06-27T09:37:47.411Z,68.10
2018-06-27T09:40:20.680Z,67.70
2018-06-27T09:42:53.892Z,67.20
2018-06-27T09:45:26.947Z,67.00
2018-06-27T09:48:00.147Z,65.90
2018-06-27T09:50:33.246Z,66.10
2018-06-27T09:53:06.845Z,66.00
2018-06-27T09:55:39.992Z,66.10
2018-06-27T09:58:13.135Z,66.80
2018-06-27T10:00:46.124Z,67.00
2018-06-27T10:03:19.356Z,67.60
2018-06-27T10:05:53.133Z,67.30
2018-06-27T10:08:26.353Z,68.10
2018-06-27T10:10:59.652Z,68.60
2018-06-27T10:13:33.595Z,68.10
2018-06-27T10:16:07.038Z,68.60
2018-06-27T10:18:40.426Z,69.40
2018-06-27T10:21:13.689Z,69.50
2018-06-27T10:23:46.952Z,69.80
2018-06-27T10:26:20.238Z,70.20
2018-06-27T10:28:53.694Z,71.50
2018-06-27T10:31:27.166Z,72.40
2018-06-27T10:34:00.473Z,72.90
2018-06-27T10:36:33.757Z,71.90
2018-06-27T10:39:07.328Z,71.00
2018-06-27T10:41:40.669Z,70.30
2018-06-27T10:44:13.739Z,69.70
2018-06-27T10:46:46.835Z,70.80
2018-06-27T10:49:20.036Z,71.70
2018-06-27T10:51:53.079Z,72.10
2018-06-27T10:54:26.304Z,71.90
2018-06-27T10:56:59.375Z,72.40
2018-06-27T10:59:32.659Z,73.20
2018-06-27T11:02:05.654Z,71.80
2018-06-27T11:04:41.412Z,71.30
2018-06-27T11:07:14.683Z,71.70
2018-06-27T11:09:47.767Z,72.20
2018-06-27T11:12:21.695Z,72.70
2018-06-27T11:14:55.345Z,72.90
2018-06-27T11:17:28.439Z,73.20
2018-06-27T11:20:02.123Z,73.60
2018-06-27T11:22:35.243Z,74.40
2018-06-27T11:25:08.304Z,75.20
2018-06-27T11:27:41.412Z,75.30
2018-06-27T11:30:14.534Z,75.50
2018-06-27T11:32:47.576Z,75.50
2018-06-27T11:35:20.668Z,76.60
2018-06-27T11:37:53.743Z,76.00
2018-06-27T11:40:26.861Z,76.00
2018-06-27T11:42:59.971Z,75.90
2018-06-27T11:45:33.848Z,76.30
2018-06-27T11:48:07.028Z,76.50
2018-06-27T11:50:40.080Z,76.60
2018-06-27T11:53:13.127Z,76.90
2018-06-27T11:55:46.247Z,76.90
2018-06-27T11:58:19.403Z,77.00
2018-06-27T12:00:57.671Z,77.40
2018-06-27T12:03:30.921Z,78.30
2018-06-27T12:06:04.005Z,78.90
2018-06-27T12:08:37.133Z,79.10
2018-06-27T12:11:10.176Z,79.20
2018-06-27T12:13:43.353Z,79.20
2018-06-27T12:16:16.746Z,80.20
2018-06-27T12:18:51.504Z,79.30
2018-06-27T12:21:24.691Z,79.60
2018-06-27T12:23:58.480Z,79.70
2018-06-27T12:26:31.671Z,79.30
2018-06-27T12:31:36.536Z,79.20
2018-06-27T12:34:09.716Z,79.20
2018-06-27T12:36:42.868Z,79.20
2018-06-27T12:39:15.925Z,79.70
2018-06-27T12:41:49.001Z,80.50
2018-06-27T12:44:22.997Z,81.00
2018-06-27T12:46:57.162Z,81.40
2018-06-27T12:49:30.176Z,81.50
2018-06-27T12:52:03.261Z,81.40
2018-06-27T12:54:36.419Z,81.10
2018-06-27T12:57:09.513Z,80.90
2018-06-27T13:02:14.378Z,81.50
2018-06-27T13:04:47.552Z,81.50
2018-06-27T13:07:20.738Z,81.50
2018-06-27T13:09:53.868Z,81.70
2018-06-27T13:12:27.214Z,82.00
2018-06-27T13:15:00.368Z,82.30
2018-06-27T13:17:33.338Z,82.40
2018-06-27T13:20:07.371Z,82.20
2018-06-27T13:22:40.385Z,82.30
2018-06-27T13:25:13.592Z,82.70
2018-06-27T13:27:46.719Z,83.10
2018-06-27T13:30:19.803Z,83.00
2018-06-27T13:32:53.143Z,83.30
2018-06-27T13:35:26.813Z,83.50
2018-06-27T13:38:00.092Z,83.20
2018-06-27T13:40:33.215Z,83.00
2018-06-27T13:43:06.372Z,83.10
2018-06-27T13:45:39.521Z,83.50
2018-06-27T13:48:13.229Z,83.70
2018-06-27T13:50:46.359Z,84.10
2018-06-27T13:53:19.506Z,84.00
2018-06-27T13:58:24.731Z,84.00
2018-06-27T14:00:57.897Z,83.70
2018-06-27T14:03:31.635Z,83.70
2018-06-27T14:06:04.788Z,84.20
2018-06-27T14:08:38.048Z,84.60
2018-06-27T14:11:11.084Z,84.70
2018-06-27T14:13:44.166Z,85.00
2018-06-27T14:16:17.188Z,85.30
2018-06-27T14:18:51.163Z,85.40
2018-06-27T14:21:26.047Z,85.40
2018-06-27T14:23:59.239Z,85.30
2018-06-27T14:26:32.475Z,85.00
2018-06-27T14:29:05.754Z,85.00
2018-06-27T14:31:38.911Z,85.10
2018-06-27T14:34:12.051Z,85.30
2018-06-27T14:36:45.132Z,85.40
2018-06-27T14:39:18.375Z,85.20
2018-06-27T14:41:51.618Z,85.30
2018-06-27T14:44:24.895Z,85.10
2018-06-27T14:46:58.051Z,85.50
2018-06-27T14:49:31.935Z,85.80
2018-06-27T14:52:05.091Z,85.70
2018-06-27T14:54:38.156Z,85.50
2018-06-27T14:57:11.424Z,85.70
2018-06-27T14:59:44.570Z,85.80
2018-06-27T15:02:17.813Z,85.90
2018-06-27T15:04:50.864Z,86.00
2018-06-27T15:07:24.119Z,85.80
2018-06-27T15:09:57.359Z,85.60
2018-06-27T15:12:31.055Z,85.60
2018-06-27T15:15:04.208Z,85.60
2018-06-27T15:17:37.338Z,85.90
2018-06-27T15:20:10.516Z,86.20
2018-06-27T15:22:44.596Z,86.30
2018-06-27T15:25:17.905Z,86.20
2018-06-27T15:27:51.061Z,86.10
2018-06-27T15:30:24.242Z,86.10
2018-06-27T15:32:57.370Z,86.10
2018-06-27T15:35:30.486Z,86.10
2018-06-27T15:38:03.654Z,86.30
2018-06-27T15:40:36.659Z,86.50
2018-06-27T15:43:09.567Z,86.80
2018-06-27T15:45:42.742Z,87.00
2018-06-27T15:48:16.149Z,87.20
2018-06-27T15:50:49.258Z,87.30
2018-06-27T15:53:22.340Z,87.30
2018-06-27T15:55:55.383Z,87.30
2018-06-27T15:58:28.730Z,87.40
2018-06-27T16:01:02.076Z,87.30
2018-06-27T16:03:36.147Z,87.50
2018-06-27T16:06:09.300Z,87.80
2018-06-27T16:08:42.265Z,88.00
2018-06-27T16:11:15.563Z,88.00
2018-06-27T16:13:48.767Z,88.00
2018-06-27T16:16:21.835Z,88.20
2018-06-27T16:18:54.912Z,88.30
2018-06-27T16:21:28.068Z,88.40
2018-06-27T16:24:01.139Z,88.30
2018-06-27T16:26:34.313Z,88.30
2018-06-27T16:29:07.448Z,88.40
2018-06-27T16:31:40.752Z,88.40
2018-06-27T16:34:13.969Z,88.50
2018-06-27T16:36:47.319Z,88.60
2018-06-27T16:39:20.440Z,88.70
2018-06-27T16:41:53.577Z,88.70
2018-06-27T16:44:26.639Z,88.80
2018-06-27T16:46:59.660Z,88.80
2018-06-27T16:49:33.074Z,89.00
2018-06-27T16:52:06.338Z,89.00
2018-06-27T16:54:39.497Z,88.90
2018-06-27T16:57:12.629Z,88.90
2018-06-27T16:59:45.772Z,88.80
2018-06-27T17:02:18.938Z,88.80
2018-06-27T17:04:52.054Z,88.70
2018-06-27T17:07:25.220Z,88.80
2018-06-27T17:09:59.382Z,88.90
2018-06-27T17:12:32.472Z,88.90
2018-06-27T17:15:05.713Z,89.10
2018-06-27T17:17:38.927Z,89.00
2018-06-27T17:20:12.043Z,89.00
2018-06-27T17:22:45.051Z,89.30
2018-06-27T17:25:18.259Z,89.50
2018-06-27T17:27:51.463Z,89.50
2018-06-27T17:30:24.570Z,89.60
2018-06-27T17:32:57.731Z,89.70
2018-06-27T17:35:30.925Z,89.50
2018-06-27T17:38:04.088Z,89.60
2018-06-27T17:40:37.150Z,89.50
2018-06-27T17:43:10.547Z,89.40
2018-06-27T17:45:43.585Z,89.30
2018-06-27T17:48:16.635Z,89.50
2018-06-27T17:50:49.801Z,89.50
2018-06-27T17:53:22.867Z,90.00
2018-06-27T17:55:55.987Z,89.20
2018-06-27T17:58:29.040Z,88.80
2018-06-27T18:01:02.188Z,88.70
2018-06-27T18:03:35.214Z,88.90
2018-06-27T18:06:08.463Z,89.10
2018-06-27T18:08:41.703Z,89.60
2018-06-27T18:11:14.894Z,89.80
2018-06-27T18:13:47.976Z,90.00
2018-06-27T18:16:21.078Z,90.00
2018-06-27T18:18:54.116Z,90.00
2018-06-27T18:21:27.278Z,89.90
2018-06-27T18:24:00.418Z,90.00
2018-06-27T18:26:33.915Z,90.00
2018-06-27T18:29:07.171Z,89.90
2018-06-27T18:31:40.259Z,89.90
2018-06-27T18:34:13.311Z,90.00
2018-06-27T18:36:46.379Z,90.00
2018-06-27T18:39:19.504Z,90.00
2018-06-27T18:41:52.812Z,90.00
2018-06-27T18:44:25.862Z,90.00
2018-06-27T18:46:58.856Z,90.00
2018-06-27T18:49:31.947Z,90.00
2018-06-27T18:52:05.051Z,90.10
2018-06-27T18:54:38.137Z,90.00
2018-06-27T18:57:11.263Z,90.00
2018-06-27T18:59:44.318Z,90.00
2018-06-27T19:02:17.398Z,90.00
2018-06-27T19:04:50.507Z,90.10
2018-06-27T19:07:23.608Z,90.10
2018-06-27T19:09:56.664Z,90.10
2018-06-27T19:12:29.799Z,90.10
2018-06-27T19:15:02.938Z,90.10
2018-06-27T19:17:36.122Z,90.00
2018-06-27T19:20:09.603Z,90.00
2018-06-27T19:22:42.851Z,89.90
2018-06-27T19:25:15.922Z,89.70
2018-06-27T19:27:49.091Z,89.70
2018-06-27T19:30:26.640Z,90.20
2018-06-27T19:32:59.865Z,89.50
2018-06-27T19:35:33.074Z,89.50
2018-06-27T19:40:37.690Z,89.40
2018-06-27T19:43:10.987Z,89.40
2018-06-27T19:45:44.134Z,89.70
2018-06-27T19:48:17.215Z,89.80
2018-06-27T19:50:50.587Z,89.80
2018-06-27T19:53:23.817Z,89.90
2018-06-27T19:55:58.265Z,89.50
2018-06-27T19:58:31.335Z,89.60
2018-06-27T20:01:04.375Z,89.70
2018-06-27T20:03:37.410Z,89.80
2018-06-27T20:06:10.543Z,89.80
2018-06-27T20:08:43.535Z,89.60
2018-06-27T20:11:16.710Z,89.70
2018-06-27T20:13:49.976Z,89.80
2018-06-27T20:16:23.113Z,89.70
2018-06-27T20:18:56.320Z,89.60
2018-06-27T20:21:29.484Z,89.70
2018-06-27T20:24:02.607Z,89.70
2018-06-27T20:26:35.731Z,89.40
2018-06-27T20:29:08.980Z,89.20
2018-06-27T20:31:42.018Z,89.10
2018-06-27T20:34:15.078Z,89.10
2018-06-27T20:36:48.275Z,89.20
2018-06-27T20:39:21.339Z,89.30
2018-06-27T20:41:54.572Z,89.40
2018-06-27T20:44:27.693Z,89.60
2018-06-27T20:49:32.391Z,89.90
2018-06-27T20:52:05.529Z,89.80
2018-06-27T20:54:38.698Z,89.80
2018-06-27T20:57:11.867Z,90.00
2018-06-27T20:59:44.932Z,90.00
2018-06-27T21:02:19.819Z,90.00
2018-06-27T21:04:52.858Z,90.00
2018-06-27T21:07:26.032Z,90.10
2018-06-27T21:09:59.360Z,90.30
2018-06-27T21:12:32.403Z,90.30
2018-06-27T21:15:09.907Z,90.30
2018-06-27T21:17:43.254Z,90.30
2018-06-27T21:20:16.391Z,90.30
2018-06-27T21:22:49.463Z,90.40
2018-06-27T21:25:22.663Z,90.40
2018-06-27T21:27:55.797Z,90.40
2018-06-27T21:30:28.853Z,90.40
2018-06-27T21:33:01.943Z,90.40
2018-06-27T21:35:35.117Z,90.50
2018-06-27T21:38:08.421Z,90.50
2018-06-27T21:40:41.637Z,90.50
2018-06-27T21:43:15.020Z,90.50
2018-06-27T21:45:47.999Z,90.50
2018-06-27T21:48:21.079Z,90.50
2018-06-27T21:50:54.255Z,90.50
2018-06-27T21:53:27.471Z,90.50
2018-06-27T21:56:00.715Z,90.40
2018-06-27T21:58:33.843Z,90.40
2018-06-27T22:01:06.923Z,90.50
2018-06-27T22:03:40.000Z,90.40
2018-06-27T22:06:13.190Z,90.40
2018-06-27T22:08:46.286Z,90.30
2018-06-27T22:11:19.523Z,90.40
2018-06-27T22:13:52.723Z,90.40
2018-06-27T22:16:25.754Z,90.80
2018-06-27T22:18:58.933Z,90.50
2018-06-27T22:21:32.021Z,90.60
2018-06-27T22:24:05.338Z,90.60
2018-06-27T22:26:38.386Z,90.60
2018-06-27T22:29:11.528Z,90.50
2018-06-27T22:31:44.731Z,90.50
2018-06-27T22:34:17.787Z,90.50
2018-06-27T22:36:50.830Z,90.50
2018-06-27T22:39:23.972Z,90.60
2018-06-27T22:41:57.197Z,90.60
2018-06-27T22:44:30.191Z,90.60
2018-06-27T22:47:03.337Z,90.60
2018-06-27T22:49:36.576Z,90.70
2018-06-27T22:52:09.840Z,90.70
2018-06-27T22:54:43.084Z,90.60
2018-06-27T22:57:16.439Z,90.60
2018-06-27T22:59:49.609Z,90.60
2018-06-27T23:02:22.978Z,90.60
2018-06-27T23:04:56.298Z,90.70
2018-06-27T23:07:29.363Z,90.70
2018-06-27T23:12:35.207Z,90.70
2018-06-27T23:15:08.599Z,90.70
2018-06-27T23:17:41.701Z,90.70
2018-06-27T23:20:14.850Z,90.80
2018-06-27T23:22:50.318Z,90.90
2018-06-27T23:25:23.524Z,90.90
2018-06-27T23:27:57.739Z,90.80
2018-06-27T23:30:30.891Z,90.80
2018-06-27T23:33:04.108Z,90.80
2018-06-27T23:35:37.527Z,90.90
2018-06-27T23:38:10.641Z,90.80
2018-06-27T23:40:43.775Z,90.80
2018-06-27T23:43:16.908Z,90.70
2018-06-27T23:45:49.971Z,90.70
2018-06-27T23:48:23.122Z,90.70
2018-06-27T23:50:56.246Z,90.60
2018-06-27T23:53:29.792Z,90.40
2018-06-27T23:56:03.643Z,90.40
2018-06-27T23:58:36.715Z,90.20
